createdAt,value
2022-08-25T00:01:23.789Z,6.60
2022-08-25T00:03:55.161Z,7.00
2022-08-25T00:06:23.828Z,7.10
2022-08-25T00:08:51.164Z,7.40
2022-08-25T00:11:23.915Z,7.43
2022-08-25T00:13:55.916Z,7.00
2022-08-25T00:16:23.303Z,7.15
2022-08-25T00:18:56.738Z,7.43
2022-08-25T00:21:23.644Z,7.35
2022-08-25T00:23:50.707Z,7.32
2022-08-25T00:26:17.977Z,7.80
2022-08-25T00:28:45.095Z,7.13
2022-08-25T00:31:14.645Z,7.63
2022-08-25T00:33:43.095Z,7.50
2022-08-25T00:36:12.253Z,7.38
2022-08-25T00:38:40.592Z,7.57
2022-08-25T00:41:08.289Z,7.78
2022-08-25T00:43:46.601Z,7.57
2022-08-25T00:46:18.649Z,8.18
2022-08-25T00:48:49.299Z,7.70
2022-08-25T00:51:36.881Z,8.65
2022-08-25T00:54:05.486Z,7.80
2022-08-25T00:56:32.268Z,8.02
2022-08-25T00:58:59.903Z,7.97
2022-08-25T01:01:27.159Z,8.35
2022-08-25T01:03:54.111Z,8.10
2022-08-25T01:06:21.386Z,7.45
2022-08-25T01:08:48.176Z,8.13
2022-08-25T01:11:14.814Z,8.65
2022-08-25T01:13:45.433Z,8.80
2022-08-25T01:16:14.898Z,8.25
2022-08-25T01:18:44.552Z,8.30
2022-08-25T01:21:11.322Z,7.80
2022-08-25T01:23:38.666Z,8.38
2022-08-25T01:26:11.256Z,8.25
2022-08-25T01:28:38.550Z,7.95
2022-08-25T01:31:05.339Z,7.65
2022-08-25T01:33:51.010Z,7.57
2022-08-25T01:36:22.376Z,8.48
2022-08-25T01:38:49.434Z,8.30
2022-08-25T01:41:48.725Z,8.68
2022-08-25T01:44:18.511Z,7.68
2022-08-25T01:46:45.225Z,7.97
2022-08-25T01:49:12.114Z,8.27
2022-08-25T01:51:44.756Z,8.10
2022-08-25T01:54:11.347Z,8.60
2022-08-25T01:56:38.755Z,7.95
2022-08-25T01:59:05.467Z,8.10
2022-08-25T02:01:32.522Z,8.65
2022-08-25T02:03:59.619Z,8.13
2022-08-25T02:06:33.199Z,8.65
2022-08-25T02:09:07.760Z,8.88
2022-08-25T02:11:37.048Z,9.52
2022-08-25T02:14:04.319Z,9.57
2022-08-25T02:16:33.283Z,9.13
2022-08-25T02:19:00.936Z,9.30
2022-08-25T02:21:28.226Z,8.40
2022-08-25T02:23:55.182Z,8.27
2022-08-25T02:26:22.649Z,9.65
2022-08-25T02:28:51.116Z,10.20
2022-08-25T02:31:20.515Z,9.38
2022-08-25T02:33:47.113Z,9.98
2022-08-25T02:36:13.791Z,9.80
2022-08-25T02:38:40.723Z,9.77
2022-08-25T02:41:17.961Z,9.88
2022-08-25T02:43:45.318Z,9.80
2022-08-25T02:46:12.331Z,9.57
2022-08-25T02:48:39.912Z,9.73
2022-08-25T02:51:08.775Z,10.05
2022-08-25T02:53:38.252Z,9.95
2022-08-25T02:56:05.285Z,9.70
2022-08-25T02:58:31.931Z,9.77
2022-08-25T03:00:58.577Z,9.77
2022-08-25T03:03:25.306Z,9.32
2022-08-25T03:05:52.079Z,9.80
2022-08-25T03:08:18.747Z,9.38
2022-08-25T03:10:45.366Z,9.32
2022-08-25T03:13:14.148Z,9.60
2022-08-25T03:15:42.501Z,10.85
2022-08-25T03:18:09.341Z,9.63
2022-08-25T03:20:36.042Z,9.45
2022-08-25T03:23:04.141Z,9.15
2022-08-25T03:25:49.094Z,9.73
2022-08-25T03:28:15.917Z,10.13
2022-08-25T03:30:42.957Z,9.88
2022-08-25T03:33:10.003Z,10.65
2022-08-25T03:35:36.804Z,10.90
2022-08-25T03:38:04.004Z,10.20
2022-08-25T03:40:31.181Z,11.52
2022-08-25T03:42:58.038Z,10.77
2022-08-25T03:45:25.528Z,10.80
2022-08-25T03:47:53.495Z,10.10
2022-08-25T03:50:22.446Z,10.07
2022-08-25T03:52:56.987Z,10.50
2022-08-25T03:55:25.664Z,10.45
2022-08-25T03:57:54.570Z,10.27
2022-08-25T04:00:23.140Z,10.23
2022-08-25T04:02:49.922Z,10.85
2022-08-25T04:05:16.706Z,10.45
2022-08-25T04:07:43.611Z,10.75
2022-08-25T04:10:10.930Z,10.48
2022-08-25T04:12:38.502Z,10.63
2022-08-25T04:15:07.470Z,10.57
2022-08-25T04:17:38.849Z,10.55
2022-08-25T04:20:08.365Z,10.95
2022-08-25T04:22:36.840Z,10.93
2022-08-25T04:25:05.947Z,11.15
2022-08-25T04:27:32.550Z,12.00
2022-08-25T04:29:59.162Z,11.45
2022-08-25T04:32:25.790Z,11.35
2022-08-25T04:34:52.556Z,10.73
2022-08-25T04:37:19.182Z,11.95
2022-08-25T04:39:45.932Z,11.40
2022-08-25T04:42:12.583Z,11.27
2022-08-25T04:44:39.206Z,11.85
2022-08-25T04:47:06.032Z,12.05
2022-08-25T04:49:32.847Z,11.65
2022-08-25T04:51:59.507Z,10.20
2022-08-25T04:54:28.071Z,10.43
2022-08-25T04:56:58.101Z,11.05
2022-08-25T04:59:27.330Z,11.00
2022-08-25T05:01:58.687Z,11.60
2022-08-25T05:04:28.336Z,12.13
2022-08-25T05:06:56.725Z,11.13
2022-08-25T05:09:24.118Z,10.73
2022-08-25T05:11:52.427Z,10.65
2022-08-25T05:14:25.688Z,11.32
2022-08-25T05:16:54.772Z,11.25
2022-08-25T05:19:23.586Z,10.60
2022-08-25T05:21:50.382Z,11.45
2022-08-25T05:24:16.986Z,11.55
2022-08-25T05:26:43.861Z,11.18
2022-08-25T05:29:11.767Z,11.82
2022-08-25T05:31:43.124Z,10.70
2022-08-25T05:34:12.114Z,11.52
2022-08-25T05:36:43.174Z,10.73
2022-08-25T05:41:37.377Z,11.38
2022-08-25T05:44:04.353Z,9.90
2022-08-25T05:46:31.792Z,11.15
2022-08-25T05:48:59.025Z,10.50
2022-08-25T05:51:26.315Z,11.23
2022-08-25T05:53:53.122Z,11.02
2022-08-25T05:56:20.022Z,12.10
2022-08-25T05:58:46.903Z,11.65
2022-08-25T06:01:50.024Z,11.43
2022-08-25T06:04:18.024Z,12.50
2022-08-25T06:06:44.694Z,12.90
2022-08-25T06:09:11.605Z,11.70
2022-08-25T06:11:40.062Z,12.80
2022-08-25T06:14:08.771Z,12.35
2022-08-25T06:16:35.485Z,12.38
2022-08-25T06:19:02.191Z,11.80
2022-08-25T06:21:29.197Z,11.63
2022-08-25T06:23:55.850Z,13.30
2022-08-25T06:26:23.436Z,12.50
2022-08-25T06:28:51.761Z,11.68
2022-08-25T06:31:19.696Z,13.27
2022-08-25T06:33:46.790Z,13.02
2022-08-25T06:36:13.741Z,11.85
2022-08-25T06:38:40.321Z,12.07
2022-08-25T06:41:10.575Z,12.65
2022-08-25T06:43:45.033Z,12.88
2022-08-25T06:46:19.260Z,12.73
2022-08-25T06:48:46.047Z,13.85
2022-08-25T06:51:15.171Z,11.90
2022-08-25T06:53:43.432Z,11.93
2022-08-25T06:56:11.162Z,12.27
2022-08-25T06:58:38.855Z,12.85
2022-08-25T07:01:19.792Z,12.15
2022-08-25T07:03:47.524Z,13.25
2022-08-25T07:06:16.585Z,12.90
2022-08-25T07:08:46.442Z,12.43
2022-08-25T07:11:17.379Z,12.52
2022-08-25T07:16:11.674Z,12.52
2022-08-25T07:18:38.406Z,12.30
2022-08-25T07:21:05.423Z,12.25
2022-08-25T07:23:36.116Z,12.50
2022-08-25T07:26:36.193Z,12.60
2022-08-25T07:29:04.217Z,12.00
2022-08-25T07:31:32.428Z,12.18
2022-08-25T07:34:17.734Z,11.77
2022-08-25T07:36:44.478Z,12.75
2022-08-25T07:39:11.519Z,11.45
2022-08-25T07:41:40.817Z,12.95
2022-08-25T07:44:08.393Z,12.02
2022-08-25T07:46:35.085Z,11.73
2022-08-25T07:49:02.051Z,12.45
2022-08-25T07:51:28.866Z,11.45
2022-08-25T07:53:55.605Z,11.88
2022-08-25T07:56:22.274Z,11.68
2022-08-25T07:58:48.874Z,11.55
2022-08-25T08:01:21.288Z,11.40
2022-08-25T08:03:50.577Z,11.35
2022-08-25T08:06:20.847Z,11.93
2022-08-25T08:08:49.387Z,10.48
2022-08-25T08:11:28.707Z,11.50
2022-08-25T08:13:57.625Z,10.73
2022-08-25T08:16:26.864Z,9.68
2022-08-25T08:18:53.928Z,9.82
2022-08-25T08:21:24.459Z,10.88
2022-08-25T08:23:56.678Z,10.70
2022-08-25T08:26:36.416Z,10.80
2022-08-25T08:29:08.839Z,9.82
2022-08-25T08:31:36.596Z,10.27
2022-08-25T08:34:03.726Z,10.18
2022-08-25T08:36:30.320Z,9.07
2022-08-25T08:38:56.948Z,9.10
2022-08-25T08:42:16.950Z,9.80
2022-08-25T08:44:47.070Z,10.05
2022-08-25T08:47:17.132Z,10.40
2022-08-25T08:50:06.518Z,8.55
2022-08-25T08:52:41.251Z,9.05
2022-08-25T08:55:26.604Z,9.70
2022-08-25T08:57:56.813Z,9.00
2022-08-25T09:00:26.088Z,9.90
2022-08-25T09:02:54.694Z,9.10
2022-08-25T09:05:26.088Z,8.50
2022-08-25T09:08:03.191Z,9.27
2022-08-25T09:10:40.394Z,9.20
2022-08-25T09:13:38.691Z,7.97
2022-08-25T09:16:55.735Z,9.02
2022-08-25T09:20:02.130Z,8.18
2022-08-25T09:22:55.844Z,8.70
2022-08-25T09:25:48.589Z,8.88
2022-08-25T09:28:21.918Z,9.15
2022-08-25T09:31:16.923Z,8.48
2022-08-25T09:33:43.749Z,8.18
2022-08-25T09:36:10.916Z,7.78
2022-08-25T09:38:38.549Z,8.68
2022-08-25T09:41:05.728Z,8.57
2022-08-25T09:43:44.806Z,8.07
2022-08-25T09:46:29.021Z,8.73
2022-08-25T09:48:57.762Z,8.43
2022-08-25T09:51:38.323Z,8.02
2022-08-25T09:54:12.622Z,7.80
2022-08-25T09:57:01.998Z,7.13
2022-08-25T09:59:35.190Z,9.10
2022-08-25T10:02:05.922Z,7.55
2022-08-25T10:04:40.084Z,7.55
2022-08-25T10:07:28.428Z,8.48
2022-08-25T10:09:58.806Z,9.20
2022-08-25T10:12:51.491Z,8.75
2022-08-25T10:15:29.641Z,7.80
2022-08-25T10:18:19.941Z,8.20
2022-08-25T10:21:07.641Z,7.60
2022-08-25T10:23:37.321Z,7.60
2022-08-25T10:26:11.764Z,7.53
2022-08-25T10:28:54.553Z,7.05
2022-08-25T10:31:37.354Z,7.65
2022-08-25T10:34:37.179Z,7.55
2022-08-25T10:37:16.938Z,6.95
2022-08-25T10:39:55.409Z,8.43
2022-08-25T10:42:33.836Z,7.40
2022-08-25T10:45:28.443Z,8.20
2022-08-25T10:48:06.979Z,7.28
2022-08-25T10:50:40.054Z,5.88
2022-08-25T10:53:42.411Z,7.50
2022-08-25T10:56:26.363Z,6.97
2022-08-25T10:59:12.475Z,7.03
2022-08-25T11:01:53.856Z,5.78
2022-08-25T11:04:30.954Z,6.90
2022-08-25T11:07:10.554Z,6.40
2022-08-25T11:09:44.363Z,5.13
2022-08-25T11:12:38.652Z,5.97
2022-08-25T11:15:20.407Z,5.97
2022-08-25T11:17:53.748Z,6.70
2022-08-25T11:20:27.024Z,5.93
2022-08-25T11:23:08.840Z,5.93
2022-08-25T11:25:46.098Z,6.20
2022-08-25T11:28:14.712Z,6.20
2022-08-25T11:30:41.997Z,5.93
2022-08-25T11:33:13.975Z,6.88
2022-08-25T11:35:47.682Z,6.15
2022-08-25T11:38:17.775Z,5.82
2022-08-25T11:40:59.530Z,6.20
2022-08-25T11:43:56.334Z,5.82
2022-08-25T11:46:45.558Z,5.38
2022-08-25T11:49:44.339Z,5.78
2022-08-25T11:52:34.842Z,5.65
2022-08-25T11:55:12.086Z,6.05
2022-08-25T11:57:39.553Z,6.35
2022-08-25T12:00:08.587Z,9.93
2022-08-25T12:02:48.699Z,7.20
2022-08-25T12:05:15.312Z,7.72
2022-08-25T12:07:48.258Z,6.88
2022-08-25T12:10:19.586Z,12.95
2022-08-25T12:12:46.538Z,7.43
2022-08-25T12:15:53.639Z,7.70
2022-08-25T12:18:23.074Z,6.22
2022-08-25T12:20:58.521Z,5.90
2022-08-25T12:23:27.862Z,5.03
2022-08-25T12:25:57.015Z,6.43
2022-08-25T12:28:30.339Z,6.05
2022-08-25T12:31:12.065Z,6.20
2022-08-25T12:33:53.968Z,5.95
2022-08-25T12:36:31.512Z,4.90
2022-08-25T12:39:24.328Z,5.50
2022-08-25T12:41:58.270Z,5.05
2022-08-25T12:44:38.231Z,4.90
2022-08-25T12:47:28.063Z,5.38
2022-08-25T12:50:35.140Z,6.03
2022-08-25T12:53:12.263Z,6.10
2022-08-25T12:55:46.474Z,6.72
2022-08-25T12:58:13.096Z,8.65
2022-08-25T13:01:00.884Z,6.65
2022-08-25T13:04:06.219Z,7.95
2022-08-25T13:06:58.320Z,5.38
2022-08-25T13:09:50.703Z,7.45
2022-08-25T13:12:35.527Z,5.35
2022-08-25T13:15:02.805Z,6.78
2022-08-25T13:17:35.644Z,7.18
2022-08-25T13:20:30.536Z,5.00
2022-08-25T13:25:51.759Z,11.43
2022-08-25T13:28:30.084Z,7.43
2022-08-25T13:31:00.233Z,8.90
2022-08-25T13:33:27.815Z,6.07
2022-08-25T13:36:16.313Z,7.72
2022-08-25T13:38:46.792Z,6.65
2022-08-25T13:41:29.372Z,8.10
2022-08-25T13:44:01.083Z,6.13
2022-08-25T13:46:30.070Z,5.57
2022-08-25T13:49:06.599Z,5.90
2022-08-25T13:51:36.488Z,5.18
2022-08-25T13:54:07.190Z,6.05
2022-08-25T13:56:41.902Z,5.60
2022-08-25T13:59:40.779Z,5.88
2022-08-25T14:02:15.260Z,4.97
2022-08-25T14:04:50.667Z,4.40
2022-08-25T14:07:20.161Z,4.68
2022-08-25T14:09:57.489Z,4.20
2022-08-25T14:15:07.331Z,10.45
2022-08-25T14:17:39.197Z,7.97
2022-08-25T14:20:17.252Z,11.43
2022-08-25T14:22:44.332Z,9.77
2022-08-25T14:25:11.344Z,5.90
2022-08-25T14:28:05.721Z,6.60
2022-08-25T14:30:30.125Z,6.40
2022-08-25T14:32:57.026Z,5.68
2022-08-25T14:35:23.672Z,5.63
2022-08-25T14:37:50.543Z,5.57
2022-08-25T14:40:20.033Z,5.00
2022-08-25T14:42:47.602Z,5.22
2022-08-25T14:45:18.938Z,7.97
2022-08-25T14:47:49.722Z,11.32
2022-08-25T14:50:24.668Z,7.57
2022-08-25T14:52:52.164Z,7.93
2022-08-25T14:55:31.678Z,7.05
2022-08-25T14:57:59.811Z,7.40
2022-08-25T15:00:26.721Z,4.55
2022-08-25T15:02:54.890Z,5.22
2022-08-25T15:05:25.698Z,4.57
2022-08-25T15:08:12.461Z,5.22
2022-08-25T15:10:40.363Z,4.80
2022-08-25T15:13:07.325Z,4.68
2022-08-25T15:15:38.804Z,4.30
2022-08-25T15:18:19.787Z,5.47
2022-08-25T15:20:47.047Z,4.88
2022-08-25T15:23:18.628Z,4.88
2022-08-25T15:25:52.863Z,4.90
2022-08-25T15:28:21.907Z,4.85
2022-08-25T15:30:50.059Z,5.05
2022-08-25T15:33:17.769Z,4.68
2022-08-25T15:35:45.128Z,4.68
2022-08-25T15:38:12.483Z,5.05
2022-08-25T15:40:39.864Z,5.45
2022-08-25T15:43:07.093Z,5.25
2022-08-25T15:45:36.234Z,6.88
2022-08-25T15:48:04.383Z,5.63
2022-08-25T15:50:33.718Z,4.35
2022-08-25T15:53:00.583Z,4.78
2022-08-25T15:55:27.509Z,5.55
2022-08-25T15:57:55.491Z,4.57
2022-08-25T16:00:22.838Z,4.57
2022-08-25T16:02:49.975Z,5.03
2022-08-25T16:05:16.785Z,4.97
2022-08-25T16:07:45.948Z,5.60
2022-08-25T16:10:13.686Z,4.63
2022-08-25T16:12:42.716Z,5.05
2022-08-25T16:15:12.098Z,4.50
2022-08-25T16:17:40.736Z,4.15
2022-08-25T16:20:13.827Z,5.05
2022-08-25T16:22:41.209Z,4.68
2022-08-25T16:25:08.485Z,4.55
2022-08-25T16:27:38.578Z,5.20
2022-08-25T16:32:33.545Z,5.53
2022-08-25T16:35:00.719Z,4.40
2022-08-25T16:37:27.664Z,5.03
2022-08-25T16:39:55.417Z,4.53
2022-08-25T16:42:22.219Z,5.05
2022-08-25T16:44:48.841Z,4.85
2022-08-25T16:47:25.270Z,4.68
2022-08-25T16:49:54.326Z,4.90
2022-08-25T16:52:40.598Z,4.43
2022-08-25T16:55:14.359Z,4.65
2022-08-25T16:57:44.006Z,4.90
2022-08-25T17:00:13.840Z,4.47
2022-08-25T17:02:42.152Z,4.90
2022-08-25T17:05:11.396Z,4.72
2022-08-25T17:07:38.680Z,4.68
2022-08-25T17:10:06.694Z,4.68
2022-08-25T17:12:39.600Z,5.30
2022-08-25T17:15:07.513Z,5.72
2022-08-25T17:17:36.019Z,5.93
2022-08-25T17:20:04.820Z,5.63
2022-08-25T17:22:31.715Z,5.13
2022-08-25T17:25:00.704Z,5.65
2022-08-25T17:27:27.994Z,6.00
2022-08-25T17:29:55.824Z,5.07
2022-08-25T17:32:28.877Z,5.75
2022-08-25T17:34:58.095Z,6.47
2022-08-25T17:37:24.864Z,6.75
2022-08-25T17:39:57.429Z,7.22
2022-08-25T17:42:30.537Z,8.18
2022-08-25T17:44:57.989Z,8.13
2022-08-25T17:47:24.634Z,8.13
2022-08-25T17:49:51.216Z,7.80
2022-08-25T17:52:17.855Z,7.47
2022-08-25T17:54:48.137Z,8.55
2022-08-25T17:57:16.136Z,7.18
2022-08-25T17:59:42.938Z,7.72
2022-08-25T18:02:09.706Z,7.30
2022-08-25T18:04:39.063Z,7.82
2022-08-25T18:07:06.573Z,7.82
2022-08-25T18:09:33.233Z,7.85
2022-08-25T18:11:59.940Z,8.02
2022-08-25T18:14:26.782Z,7.50
2022-08-25T18:16:53.917Z,7.68
2022-08-25T18:19:21.205Z,7.32
2022-08-25T18:21:48.120Z,8.40
2022-08-25T18:24:14.687Z,6.93
2022-08-25T18:26:41.560Z,7.65
2022-08-25T18:29:12.075Z,8.13
2022-08-25T18:31:41.645Z,7.70
2022-08-25T18:34:11.023Z,7.95
2022-08-25T18:36:38.795Z,7.63
2022-08-25T18:39:24.729Z,7.55
2022-08-25T18:41:51.765Z,8.07
2022-08-25T18:44:18.413Z,7.97
2022-08-25T18:46:45.376Z,8.32
2022-08-25T18:49:12.767Z,8.27
2022-08-25T18:51:44.395Z,7.65
2022-08-25T18:54:22.410Z,8.30
2022-08-25T18:56:50.287Z,7.70
2022-08-25T18:59:16.892Z,8.40
2022-08-25T19:01:44.586Z,8.65
2022-08-25T19:04:13.514Z,8.23
2022-08-25T19:06:40.105Z,8.27
2022-08-25T19:09:10.835Z,9.10
2022-08-25T19:11:38.431Z,8.48
2022-08-25T19:14:08.081Z,9.45
2022-08-25T19:16:41.120Z,10.05
2022-08-25T19:19:11.561Z,10.70
2022-08-25T19:21:38.825Z,8.95
2022-08-25T19:24:07.020Z,8.27
2022-08-25T19:26:36.258Z,8.15
2022-08-25T19:29:08.964Z,8.65
2022-08-25T19:31:37.115Z,8.40
2022-08-25T19:34:09.003Z,8.95
2022-08-25T19:36:35.802Z,9.27
2022-08-25T19:39:04.747Z,8.98
2022-08-25T19:41:31.518Z,9.57
2022-08-25T19:43:59.451Z,8.23
2022-08-25T19:46:35.176Z,8.63
2022-08-25T19:49:09.149Z,7.88
2022-08-25T19:51:38.238Z,7.75
2022-08-25T19:54:05.936Z,9.13
2022-08-25T19:56:35.123Z,8.43
2022-08-25T19:59:03.814Z,8.38
2022-08-25T20:01:30.512Z,8.45
2022-08-25T20:03:57.146Z,8.75
2022-08-25T20:06:24.406Z,9.80
2022-08-25T20:08:58.907Z,8.40
2022-08-25T20:11:28.888Z,8.63
2022-08-25T20:13:58.184Z,9.10
2022-08-25T20:16:28.135Z,9.15
2022-08-25T20:18:55.013Z,9.07
2022-08-25T20:21:21.608Z,8.30
2022-08-25T20:24:07.287Z,8.77
2022-08-25T20:26:33.879Z,8.93
2022-08-25T20:29:00.544Z,9.55
2022-08-25T20:31:27.346Z,8.40
2022-08-25T20:33:58.507Z,9.80
2022-08-25T20:36:26.923Z,9.68
2022-08-25T20:38:53.502Z,10.10
2022-08-25T20:41:20.110Z,9.95
2022-08-25T20:43:46.744Z,9.27
2022-08-25T20:46:13.515Z,9.00
2022-08-25T20:48:40.185Z,9.13
2022-08-25T20:51:08.541Z,8.73
2022-08-25T20:53:36.627Z,8.93
2022-08-25T20:56:08.882Z,8.82
2022-08-25T20:58:37.598Z,8.70
2022-08-25T21:01:37.552Z,8.73
2022-08-25T21:04:06.076Z,8.85
2022-08-25T21:06:36.119Z,9.52
2022-08-25T21:09:07.595Z,9.13
2022-08-25T21:11:41.456Z,8.65
2022-08-25T21:14:08.080Z,8.63
2022-08-25T21:16:38.816Z,9.23
2022-08-25T21:21:38.185Z,9.05
2022-08-25T21:24:09.744Z,8.80
2022-08-25T21:26:37.614Z,9.07
2022-08-25T21:29:15.571Z,8.52
2022-08-25T21:31:42.594Z,8.30
2022-08-25T21:34:11.681Z,7.78
2022-08-25T21:36:39.531Z,8.38
2022-08-25T21:39:06.737Z,8.68
2022-08-25T21:41:35.276Z,9.05
2022-08-25T21:44:03.869Z,8.27
2022-08-25T21:46:32.960Z,9.00
2022-08-25T21:49:00.874Z,8.60
2022-08-25T21:51:44.559Z,8.90
2022-08-25T21:54:15.221Z,9.20
2022-08-25T21:57:02.642Z,8.60
2022-08-25T21:59:32.575Z,9.65
2022-08-25T22:02:02.059Z,8.85
2022-08-25T22:04:29.687Z,10.32
2022-08-25T22:06:58.081Z,8.70
2022-08-25T22:09:25.286Z,9.50
2022-08-25T22:11:54.736Z,9.05
2022-08-25T22:14:23.476Z,9.40
2022-08-25T22:16:52.013Z,10.20
2022-08-25T22:19:18.820Z,9.20
2022-08-25T22:21:45.468Z,9.02
2022-08-25T22:24:12.300Z,9.80
2022-08-25T22:26:39.828Z,9.85
2022-08-25T22:29:06.615Z,10.13
2022-08-25T22:31:35.662Z,10.07
2022-08-25T22:34:03.404Z,11.02
2022-08-25T22:36:34.222Z,9.30
2022-08-25T22:39:01.665Z,9.95
2022-08-25T22:41:29.934Z,10.00
2022-08-25T22:43:56.802Z,11.88
2022-08-25T22:46:27.942Z,11.70
2022-08-25T22:48:55.627Z,12.00
2022-08-25T22:51:25.539Z,11.70
2022-08-25T22:53:52.217Z,10.48
2022-08-25T22:56:29.738Z,11.60
2022-08-25T22:59:05.766Z,10.45
2022-08-25T23:01:33.491Z,10.57
2022-08-25T23:04:04.191Z,10.80
2022-08-25T23:06:34.470Z,11.73
2022-08-25T23:09:01.588Z,10.93
2022-08-25T23:11:28.871Z,10.05
2022-08-25T23:13:57.542Z,10.23
2022-08-25T23:16:24.457Z,9.57
2022-08-25T23:18:51.184Z,10.43
2022-08-25T23:21:38.162Z,10.07
2022-08-25T23:24:10.747Z,11.20
2022-08-25T23:26:42.446Z,10.15
2022-08-25T23:29:18.073Z,10.52
2022-08-25T23:31:47.536Z,10.40
2022-08-25T23:34:16.601Z,10.25
2022-08-25T23:36:44.735Z,10.90
2022-08-25T23:39:11.466Z,10.82
2022-08-25T23:41:38.821Z,10.48
2022-08-25T23:44:06.750Z,11.70
2022-08-25T23:46:36.118Z,11.50
2022-08-25T23:49:04.917Z,10.70
2022-08-25T23:51:34.332Z,9.82
2022-08-25T23:54:05.793Z,10.75
2022-08-25T23:56:34.412Z,11.38
2022-08-25T23:59:05.126Z,10.77
